Time;durP1;ratioP1;P1;durP2;ratioP2;P2;SDS_P1;SDS_P2;PMS_P1;PMS_P2;Temp;Humidity;BMP_temperature;BMP_pressure;BME280_temperature;BME280_humidity;BME280_pressure;Samples;Min_cycle;Max_cycle;Signal;HPM_P1;HPM_P2
2024/03/18 00:02:20;;;;;;;11.80;7.83;;;9.10;99.90;;;;;;5041907;28;20534;-71
2024/03/18 00:04:47;;;;;;;14.57;9.50;;;9.30;99.90;;;;;;5036978;28;20511;-69
2024/03/18 00:07:14;;;;;;;13.97;9.23;;;9.20;99.90;;;;;;5044236;28;20445;-71
2024/03/18 00:09:43;;;;;;;14.23;9.50;;;9.20;99.90;;;;;;5042365;28;20459;-69
2024/03/18 00:12:10;;;;;;;15.03;9.80;;;9.10;99.90;;;;;;5043313;28;20826;-69
2024/03/18 00:14:37;;;;;;;15.30;9.37;;;9.20;99.90;;;;;;5045280;28;20456;-68
2024/03/18 00:17:05;;;;;;;15.20;9.20;;;9.20;99.90;;;;;;5045764;28;20508;-69
2024/03/18 00:19:32;;;;;;;15.17;8.77;;;9.20;99.90;;;;;;5044370;28;20454;-69
2024/03/18 00:21:59;;;;;;;14.00;9.10;;;9.00;99.90;;;;;;5046121;28;20472;-69
2024/03/18 00:24:26;;;;;;;14.47;9.80;;;9.10;99.90;;;;;;5047303;28;20488;-69
2024/03/18 00:26:55;;;;;;;15.73;9.63;;;9.00;99.90;;;;;;5048188;28;20466;-69
2024/03/18 00:29:22;;;;;;;15.10;9.57;;;9.00;99.90;;;;;;5048365;28;20467;-69
2024/03/18 00:31:49;;;;;;;14.50;10.37;;;9.00;99.90;;;;;;5046259;28;20542;-67
2024/03/18 00:34:16;;;;;;;15.13;9.90;;;9.00;99.90;;;;;;5045997;28;20466;-69
2024/03/18 00:36:44;;;;;;;14.37;9.20;;;9.00;99.90;;;;;;5045021;28;20451;-68
2024/03/18 00:39:11;;;;;;;15.80;9.63;;;9.20;99.90;;;;;;5045871;28;20466;-69
2024/03/18 00:41:47;;;;;;;15.63;9.13;;;9.30;99.90;;;;;;5044847;28;20975;-70
2024/03/18 00:44:19;;;;;;;16.17;9.83;;;9.10;99.90;;;;;;5046166;28;20495;-70
2024/03/18 00:46:48;;;;;;;14.53;10.17;;;9.10;99.90;;;;;;5046339;28;20448;-69
2024/03/18 00:49:15;;;;;;;15.80;9.40;;;9.10;99.90;;;;;;5045708;28;20958;-70
2024/03/18 00:51:42;;;;;;;16.67;10.40;;;9.10;99.90;;;;;;5042333;28;20461;-70
2024/03/18 00:54:10;;;;;;;15.87;9.57;;;9.20;99.90;;;;;;5046443;28;20448;-69
2024/03/18 00:56:37;;;;;;;16.97;11.07;;;9.10;99.90;;;;;;5046153;28;20457;-68
2024/03/18 00:59:05;;;;;;;15.70;11.10;;;9.00;99.90;;;;;;5045711;28;20506;-69
2024/03/18 01:01:34;;;;;;;16.10;11.30;;;9.00;99.90;;;;;;5041876;28;20478;-69
2024/03/18 01:04:01;;;;;;;13.80;10.43;;;9.00;99.90;;;;;;5042199;28;20898;-71
2024/03/18 01:06:28;;;;;;;14.80;10.40;;;9.00;99.90;;;;;;5046844;28;20502;-68
2024/03/18 01:08:56;;;;;;;14.27;9.20;;;9.10;99.90;;;;;;5045190;28;20475;-70
2024/03/18 01:11:23;;;;;;;17.27;10.87;;;9.10;99.90;;;;;;5046395;28;20495;-69
2024/03/18 01:13:50;;;;;;;15.00;10.33;;;9.10;99.90;;;;;;5045049;28;21059;-70
2024/03/18 01:16:19;;;;;;;15.77;10.23;;;9.10;99.90;;;;;;5045070;28;20480;-69
2024/03/18 01:18:48;;;;;;;14.73;10.40;;;9.10;99.90;;;;;;5045089;28;20484;-70
2024/03/18 01:21:17;;;;;;;16.27;11.17;;;9.00;99.90;;;;;;5045007;28;20534;-70
2024/03/18 01:23:46;;;;;;;16.27;10.40;;;9.00;99.90;;;;;;5041401;28;20482;-69
2024/03/18 01:26:14;;;;;;;15.30;9.67;;;8.90;99.90;;;;;;5047091;28;20463;-69
2024/03/18 01:28:41;;;;;;;14.43;9.70;;;9.00;99.90;;;;;;5045739;28;20448;-69
2024/03/18 01:31:08;;;;;;;17.87;10.03;;;8.90;99.90;;;;;;5045214;28;20538;-70
2024/03/18 01:33:35;;;;;;;19.77;9.87;;;8.90;99.90;;;;;;5044171;28;20456;-70
2024/03/18 01:36:04;;;;;;;14.87;9.83;;;9.00;99.90;;;;;;5044887;28;20957;-70
2024/03/18 01:38:32;;;;;;;16.27;10.30;;;9.00;99.90;;;;;;5045652;28;20456;-70
2024/03/18 01:40:59;;;;;;;15.80;9.13;;;8.90;99.90;;;;;;5041867;28;20532;-68
2024/03/18 01:43:26;;;;;;;17.37;9.13;;;8.90;99.90;;;;;;5043780;28;20497;-70
2024/03/18 01:45:53;;;;;;;14.03;8.73;;;9.00;99.90;;;;;;5043472;28;20957;-68
2024/03/18 01:48:20;;;;;;;12.90;8.63;;;9.00;99.90;;;;;;5046276;28;20819;-70
2024/03/18 01:50:47;;;;;;;14.10;9.50;;;9.10;99.90;;;;;;5046166;28;20519;-69
2024/03/18 01:53:16;;;;;;;15.93;8.93;;;9.10;99.90;;;;;;5044993;28;20444;-69
2024/03/18 01:55:43;;;;;;;13.83;9.00;;;9.20;99.90;;;;;;5043304;28;20735;-68
2024/03/18 01:58:10;;;;;;;16.57;10.90;;;9.30;99.90;;;;;;5045528;28;20461;-69
2024/03/18 02:00:41;;;;;;;13.47;8.20;;;9.20;99.90;;;;;;5045001;28;20961;-69
2024/03/18 02:03:09;;;;;;;14.57;8.87;;;9.10;99.90;;;;;;5041464;28;20456;-69
2024/03/18 02:05:37;;;;;;;14.93;7.87;;;9.10;99.90;;;;;;5044990;28;21251;-69
2024/03/18 02:08:06;;;;;;;13.60;7.60;;;9.10;99.90;;;;;;5039186;28;20475;-69
2024/03/18 02:10:34;;;;;;;12.50;7.40;;;9.00;99.90;;;;;;5045031;28;20465;-70
2024/03/18 02:13:02;;;;;;;12.50;7.13;;;9.00;99.90;;;;;;5040813;28;20547;-71
2024/03/18 02:15:30;;;;;;;15.23;8.20;;;8.90;99.90;;;;;;5043878;28;20497;-69
2024/03/18 02:17:58;;;;;;;11.90;7.70;;;8.90;99.90;;;;;;5044447;28;20472;-70
2024/03/18 02:20:25;;;;;;;12.93;8.10;;;9.10;99.90;;;;;;5044815;28;20456;-68
2024/03/18 02:22:54;;;;;;;15.33;8.27;;;9.20;99.90;;;;;;5042940;28;20476;-69
2024/03/18 02:25:21;;;;;;;15.20;9.50;;;9.10;99.90;;;;;;5042697;28;20488;-69
2024/03/18 02:27:49;;;;;;;14.03;8.10;;;9.00;99.90;;;;;;5044699;28;20455;-69
2024/03/18 02:30:16;;;;;;;14.23;7.80;;;9.00;99.90;;;;;;5043633;28;20472;-69
2024/03/18 02:32:43;;;;;;;14.27;8.33;;;9.00;99.90;;;;;;5042784;28;20960;-69
2024/03/18 02:35:13;;;;;;;13.60;8.27;;;9.00;99.90;;;;;;5039863;28;20564;-69
2024/03/18 02:37:40;;;;;;;12.83;7.00;;;9.10;99.90;;;;;;5040816;28;20485;-70
2024/03/18 02:40:09;;;;;;;14.97;7.60;;;9.00;99.90;;;;;;5036898;28;20472;-69
2024/03/18 02:42:37;;;;;;;13.37;7.90;;;9.00;99.90;;;;;;5042908;28;20463;-70
2024/03/18 02:45:08;;;;;;;13.07;8.10;;;8.90;99.90;;;;;;5043227;28;20476;-70
2024/03/18 02:47:35;;;;;;;10.93;6.63;;;8.90;99.90;;;;;;5043975;28;20472;-69
2024/03/18 02:50:03;;;;;;;12.47;7.93;;;8.90;99.90;;;;;;5043777;28;20473;-70
2024/03/18 02:52:30;;;;;;;12.40;7.20;;;8.80;99.90;;;;;;5041247;28;20546;-72
2024/03/18 02:54:57;;;;;;;12.33;7.43;;;8.80;99.90;;;;;;5043265;28;20460;-69
2024/03/18 02:57:25;;;;;;;12.47;7.37;;;8.90;99.90;;;;;;5037384;28;20466;-69
2024/03/18 02:59:52;;;;;;;13.10;7.70;;;8.90;99.90;;;;;;5048929;28;20467;-72
2024/03/18 03:02:19;;;;;;;12.23;7.83;;;8.90;99.90;;;;;;5047604;28;20573;-69
2024/03/18 03:04:46;;;;;;;12.20;8.43;;;8.90;99.90;;;;;;5047861;28;20504;-68
2024/03/18 03:07:13;;;;;;;13.63;8.70;;;8.90;99.90;;;;;;5049101;28;20471;-69
2024/03/18 03:09:40;;;;;;;13.70;9.07;;;8.80;99.90;;;;;;5038717;28;20531;-69
2024/03/18 03:12:08;;;;;;;13.70;8.87;;;8.70;99.90;;;;;;5047562;28;20574;-69
2024/03/18 03:14:37;;;;;;;12.80;7.50;;;8.80;99.90;;;;;;5048095;28;20469;-70
2024/03/18 03:17:04;;;;;;;13.87;8.00;;;9.00;99.90;;;;;;5049740;28;20472;-69
2024/03/18 03:19:31;;;;;;;13.30;8.20;;;8.90;99.90;;;;;;5048936;28;20467;-69
2024/03/18 03:21:58;;;;;;;15.50;8.57;;;9.00;99.90;;;;;;5047586;28;20468;-68
2024/03/18 03:24:26;;;;;;;13.30;8.47;;;8.90;99.90;;;;;;5044975;28;20486;-70
2024/03/18 03:26:53;;;;;;;13.30;8.50;;;8.90;99.90;;;;;;5046931;28;20464;-70
2024/03/18 03:29:20;;;;;;;14.30;8.40;;;9.00;99.90;;;;;;5045501;28;20468;-69
2024/03/18 03:31:48;;;;;;;17.97;9.40;;;9.10;99.90;;;;;;5059947;28;20470;-69
2024/03/18 03:34:15;;;;;;;12.63;7.97;;;9.20;99.90;;;;;;5049035;28;20850;-68
2024/03/18 03:36:44;;;;;;;14.87;9.43;;;9.00;99.90;;;;;;5049065;28;21004;-68
2024/03/18 03:39:11;;;;;;;12.33;8.00;;;8.90;99.90;;;;;;5048243;28;20476;-71
2024/03/18 03:41:38;;;;;;;14.43;8.07;;;8.90;99.90;;;;;;5047725;28;20479;-67
2024/03/18 03:44:05;;;;;;;13.90;8.43;;;8.90;99.90;;;;;;5040016;28;20481;-70
2024/03/18 03:46:32;;;;;;;13.40;8.13;;;8.80;99.90;;;;;;5049113;28;20469;-69
2024/03/18 03:49:03;;;;;;;17.23;9.27;;;8.80;99.90;;;;;;5047835;28;20468;-68
2024/03/18 03:51:30;;;;;;;15.53;9.37;;;9.00;99.90;;;;;;5047926;28;20460;-69
2024/03/18 03:53:57;;;;;;;13.40;8.37;;;9.10;99.90;;;;;;5048183;28;20554;-68
2024/03/18 03:56:25;;;;;;;14.10;8.67;;;9.10;99.90;;;;;;5047691;28;20477;-69
2024/03/18 03:58:53;;;;;;;13.10;8.13;;;9.00;99.90;;;;;;5048000;28;20480;-69
2024/03/18 04:01:21;;;;;;;13.57;8.30;;;8.90;99.90;;;;;;5048480;28;20466;-69
2024/03/18 04:03:48;;;;;;;14.07;9.10;;;8.80;99.90;;;;;;5044682;28;20472;-70
2024/03/18 04:06:17;;;;;;;12.77;8.17;;;8.90;99.90;;;;;;5043205;28;20479;-69
2024/03/18 04:08:44;;;;;;;13.40;8.03;;;8.80;99.90;;;;;;5047251;28;20456;-70
2024/03/18 04:11:11;;;;;;;14.40;9.13;;;8.80;99.90;;;;;;5047287;28;20479;-68
2024/03/18 04:13:38;;;;;;;13.87;9.57;;;8.70;99.90;;;;;;5040810;28;20444;-68
2024/03/18 04:16:05;;;;;;;15.77;9.50;;;8.70;99.90;;;;;;5048835;28;20456;-69
2024/03/18 04:18:35;;;;;;;14.67;9.97;;;8.70;99.90;;;;;;5047391;28;20473;-70
2024/03/18 04:21:03;;;;;;;13.93;8.60;;;8.70;99.90;;;;;;5044932;28;21112;-70
2024/03/18 04:23:32;;;;;;;15.80;10.13;;;8.70;99.90;;;;;;5040799;28;20463;-69
2024/03/18 04:26:00;;;;;;;15.40;8.30;;;8.70;99.90;;;;;;5047387;28;21084;-68
2024/03/18 04:28:28;;;;;;;13.57;8.93;;;8.70;99.90;;;;;;5045061;28;20867;-69
2024/03/18 04:30:55;;;;;;;13.77;8.70;;;8.60;99.90;;;;;;5046535;28;20467;-69
2024/03/18 04:33:22;;;;;;;15.97;9.37;;;8.60;99.90;;;;;;5045627;28;20486;-68
2024/03/18 04:35:50;;;;;;;20.40;8.93;;;8.60;99.90;;;;;;5040139;28;20483;-68
2024/03/18 04:38:17;;;;;;;17.47;9.27;;;8.50;99.90;;;;;;5046835;28;20468;-70
2024/03/18 04:40:45;;;;;;;14.23;8.70;;;8.70;99.90;;;;;;5046558;28;20481;-69
2024/03/18 04:43:12;;;;;;;12.50;7.90;;;8.80;99.90;;;;;;5043810;28;20471;-69
2024/03/18 04:45:39;;;;;;;14.10;9.07;;;8.90;99.90;;;;;;5046567;28;20491;-68
2024/03/18 04:48:07;;;;;;;13.33;8.90;;;8.70;99.90;;;;;;5045702;28;20460;-69
2024/03/18 04:50:34;;;;;;;16.03;9.33;;;8.70;99.90;;;;;;5045577;28;20478;-67
2024/03/18 04:53:01;;;;;;;15.43;8.07;;;8.60;99.90;;;;;;5041439;28;21287;-69
2024/03/18 04:55:28;;;;;;;13.73;9.30;;;8.60;99.90;;;;;;5046575;28;21023;-69
2024/03/18 04:57:58;;;;;;;15.83;9.93;;;8.60;99.90;;;;;;5042024;28;20822;-69
2024/03/18 05:00:26;;;;;;;16.87;9.80;;;8.70;99.90;;;;;;5045514;28;20468;-69
2024/03/18 05:02:54;;;;;;;15.30;8.80;;;8.70;99.90;;;;;;5043567;28;20475;-69
2024/03/18 05:05:21;;;;;;;16.40;8.97;;;8.70;99.90;;;;;;5045477;28;20485;-70
2024/03/18 05:07:49;;;;;;;14.50;9.53;;;8.70;99.90;;;;;;5045830;28;20516;-69
2024/03/18 05:10:21;;;;;;;15.37;8.93;;;8.70;99.90;;;;;;5045479;28;20522;-70
2024/03/18 05:12:48;;;;;;;12.83;8.70;;;8.70;99.90;;;;;;5061827;28;20468;-69
2024/03/18 05:15:17;;;;;;;14.10;9.13;;;8.70;99.90;;;;;;5046275;28;20451;-69
2024/03/18 05:17:45;;;;;;;16.70;10.00;;;8.70;99.90;;;;;;5037060;28;20460;-68
2024/03/18 05:20:12;;;;;;;13.10;8.70;;;8.70;99.90;;;;;;5043973;28;20449;-67
2024/03/18 05:22:39;;;;;;;13.70;8.77;;;8.70;99.90;;;;;;5041426;28;20464;-70
2024/03/18 05:25:09;;;;;;;16.33;8.40;;;8.70;99.90;;;;;;5044738;28;20579;-69
2024/03/18 05:27:37;;;;;;;14.30;9.03;;;8.80;99.90;;;;;;5046517;28;20461;-70
2024/03/18 05:30:05;;;;;;;17.10;9.33;;;8.70;99.90;;;;;;5037410;28;21001;-69
2024/03/18 05:32:35;;;;;;;13.27;8.27;;;8.80;99.90;;;;;;5044031;28;20467;-69
2024/03/18 05:35:02;;;;;;;15.83;8.43;;;9.10;99.90;;;;;;5044430;28;20534;-69
2024/03/18 05:37:29;;;;;;;15.07;8.60;;;9.10;99.90;;;;;;5045849;28;20474;-69
2024/03/18 05:39:56;;;;;;;13.50;8.40;;;9.20;99.90;;;;;;5045048;28;20468;-69
2024/03/18 05:42:23;;;;;;;13.90;8.40;;;9.10;99.90;;;;;;5037350;28;20472;-68
2024/03/18 05:44:50;;;;;;;13.83;8.27;;;9.00;99.90;;;;;;5039341;28;20491;-69
2024/03/18 05:47:17;;;;;;;14.30;8.23;;;9.00;99.90;;;;;;5046684;28;20451;-70
2024/03/18 05:49:46;;;;;;;15.77;8.70;;;8.90;99.90;;;;;;5045689;28;20835;-69
2024/03/18 05:52:13;;;;;;;14.93;8.37;;;8.90;99.90;;;;;;5044145;28;20486;-72
2024/03/18 05:54:40;;;;;;;14.20;8.10;;;8.90;99.90;;;;;;5046079;28;20460;-69
2024/03/18 05:57:07;;;;;;;12.23;7.77;;;8.90;99.90;;;;;;5044216;28;20969;-68
2024/03/18 05:59:34;;;;;;;12.70;8.10;;;8.90;99.90;;;;;;5041670;28;20479;-69
2024/03/18 06:02:01;;;;;;;12.40;7.10;;;9.00;99.90;;;;;;5044257;28;20486;-69
2024/03/18 06:04:27;;;;;;;12.70;7.50;;;9.00;99.90;;;;;;5045597;28;20513;-70
2024/03/18 06:06:59;;;;;;;12.43;7.40;;;9.00;99.90;;;;;;5044674;28;20488;-69
2024/03/18 06:09:27;;;;;;;13.00;7.10;;;8.90;99.90;;;;;;5044884;28;20831;-70
2024/03/18 06:11:54;;;;;;;13.47;7.83;;;8.90;99.90;;;;;;5039707;28;20856;-69
2024/03/18 06:14:21;;;;;;;15.17;8.57;;;9.00;99.90;;;;;;5039087;28;20793;-68
2024/03/18 06:16:48;;;;;;;11.93;7.60;;;9.00;99.90;;;;;;5045586;28;20513;-69
2024/03/18 06:19:17;;;;;;;13.13;8.67;;;9.20;99.90;;;;;;5045472;28;20463;-69
2024/03/18 06:21:45;;;;;;;13.17;8.00;;;9.30;99.90;;;;;;5043836;28;21026;-69
2024/03/18 06:24:22;;;;;;;14.53;7.50;;;9.30;99.90;;;;;;5045181;28;20986;-69
2024/03/18 06:26:48;;;;;;;12.73;7.63;;;9.20;99.90;;;;;;5044971;28;20487;-72
2024/03/18 06:29:15;;;;;;;15.07;9.10;;;9.20;99.90;;;;;;5044175;28;20965;-69
2024/03/18 06:31:42;;;;;;;14.63;8.00;;;9.10;99.90;;;;;;5043928;28;20533;-70
2024/03/18 06:34:09;;;;;;;15.53;8.73;;;9.00;99.90;;;;;;5049360;28;20842;-67
2024/03/18 06:36:37;;;;;;;13.73;8.50;;;9.10;99.90;;;;;;5049158;28;20474;-68
2024/03/18 06:39:04;;;;;;;14.90;9.20;;;9.10;99.90;;;;;;5049437;28;20462;-69
2024/03/18 06:41:34;;;;;;;14.67;8.83;;;9.20;99.90;;;;;;5046987;28;20467;-68
2024/03/18 06:44:01;;;;;;;11.13;7.53;;;9.20;99.90;;;;;;5048190;28;20518;-70
2024/03/18 06:46:28;;;;;;;12.53;8.10;;;9.30;99.90;;;;;;5048635;28;20542;-70
2024/03/18 06:48:55;;;;;;;18.70;8.73;;;9.30;99.90;;;;;;5048810;28;20449;-72
2024/03/18 06:51:22;;;;;;;12.27;7.70;;;9.30;99.90;;;;;;5049041;28;20472;-69
2024/03/18 06:53:49;;;;;;;13.80;7.90;;;9.40;99.90;;;;;;5047364;28;20460;-71
2024/03/18 06:56:17;;;;;;;12.20;6.67;;;9.60;99.90;;;;;;5048544;28;20461;-70
2024/03/18 06:58:46;;;;;;;13.70;7.40;;;9.60;99.90;;;;;;5045679;28;20455;-70
2024/03/18 07:01:13;;;;;;;11.60;7.00;;;9.80;99.90;;;;;;5049438;28;21038;-70
2024/03/18 07:03:40;;;;;;;11.00;6.83;;;9.90;99.90;;;;;;5049335;28;20485;-69
2024/03/18 07:06:07;;;;;;;12.80;7.20;;;9.90;99.90;;;;;;5050177;28;20496;-70
2024/03/18 07:08:34;;;;;;;13.07;7.00;;;10.00;99.90;;;;;;5050381;28;20444;-70
2024/03/18 07:11:01;;;;;;;11.43;7.23;;;10.00;99.90;;;;;;5049139;28;20482;-70
2024/03/18 07:13:28;;;;;;;12.40;8.43;;;9.90;99.90;;;;;;5056132;28;20442;-69
2024/03/18 07:15:58;;;;;;;12.20;7.47;;;9.90;99.90;;;;;;5056012;28;20444;-71
2024/03/18 07:18:25;;;;;;;12.77;7.47;;;9.90;99.90;;;;;;5053525;28;20475;-69
2024/03/18 07:20:54;;;;;;;13.50;8.03;;;9.70;99.90;;;;;;5060855;28;20458;-70
2024/03/18 07:23:22;;;;;;;12.60;7.93;;;9.70;99.90;;;;;;5042715;28;20457;-70
2024/03/18 07:25:50;;;;;;;14.50;7.87;;;9.70;99.90;;;;;;5049543;28;20479;-68
2024/03/18 07:28:17;;;;;;;15.23;7.80;;;9.60;99.90;;;;;;5050149;28;20463;-69
2024/03/18 07:30:47;;;;;;;16.83;9.07;;;9.40;99.90;;;;;;5057582;28;20487;-70
2024/03/18 07:33:15;;;;;;;13.77;8.20;;;9.40;99.90;;;;;;5047566;28;20459;-70
2024/03/18 07:35:42;;;;;;;14.20;8.97;;;9.40;99.90;;;;;;5046660;28;21240;-68
2024/03/18 07:38:09;;;;;;;13.00;8.60;;;9.40;99.90;;;;;;5045891;28;20457;-68
2024/03/18 07:40:37;;;;;;;14.27;8.90;;;9.50;99.90;;;;;;5053256;28;20456;-70
2024/03/18 07:43:05;;;;;;;15.23;9.00;;;9.50;99.90;;;;;;5047725;28;20461;-70
2024/03/18 07:45:32;;;;;;;14.47;8.90;;;9.50;99.90;;;;;;5054214;28;20486;-72
2024/03/18 07:48:04;;;;;;;14.03;8.97;;;9.60;99.90;;;;;;5051246;28;20454;-70
2024/03/18 07:50:34;;;;;;;15.57;9.40;;;9.70;99.90;;;;;;5045500;28;20469;-68
2024/03/18 07:53:01;;;;;;;15.13;10.10;;;9.80;99.90;;;;;;5052656;28;20824;-68
2024/03/18 07:55:29;;;;;;;14.67;9.00;;;9.80;99.90;;;;;;5053366;28;20454;-69
2024/03/18 07:57:56;;;;;;;14.13;8.70;;;9.90;99.90;;;;;;5055539;28;20450;-70
2024/03/18 08:00:24;;;;;;;15.20;9.37;;;10.10;99.90;;;;;;5057352;28;20822;-69
2024/03/18 08:02:51;;;;;;;13.20;8.70;;;10.20;99.90;;;;;;5048902;28;20458;-70
2024/03/18 08:05:18;;;;;;;15.90;8.77;;;10.30;99.90;;;;;;5066334;28;20516;-69
2024/03/18 08:07:46;;;;;;;14.53;8.60;;;10.30;99.90;;;;;;5048771;28;20451;-70
2024/03/18 08:10:13;;;;;;;14.03;9.47;;;10.30;99.90;;;;;;5048577;28;20471;-69
2024/03/18 08:12:40;;;;;;;15.13;8.53;;;10.20;99.90;;;;;;5047139;28;20531;-69
2024/03/18 08:15:09;;;;;;;16.60;9.50;;;10.20;99.90;;;;;;5047499;28;20463;-69
2024/03/18 08:17:37;;;;;;;18.90;9.40;;;10.20;99.90;;;;;;5049066;28;20562;-68
2024/03/18 08:20:04;;;;;;;15.57;9.53;;;10.20;99.90;;;;;;5040083;28;20449;-69
2024/03/18 08:22:31;;;;;;;16.50;9.87;;;10.30;99.90;;;;;;5046279;28;20983;-69
2024/03/18 08:25:00;;;;;;;14.97;10.37;;;10.40;99.90;;;;;;5047328;28;20959;-69
2024/03/18 08:27:29;;;;;;;15.83;9.47;;;10.50;99.90;;;;;;5047466;28;20542;-70
2024/03/18 08:29:56;;;;;;;16.53;11.00;;;10.50;99.90;;;;;;5047692;28;20450;-70
2024/03/18 08:32:23;;;;;;;15.23;10.43;;;10.60;99.90;;;;;;5045710;28;20537;-70
2024/03/18 08:34:50;;;;;;;16.27;10.80;;;10.60;99.90;;;;;;5046795;28;20440;-70
2024/03/18 08:37:20;;;;;;;15.83;10.90;;;10.60;99.90;;;;;;5047233;28;20457;-70
2024/03/18 08:39:47;;;;;;;16.13;10.03;;;10.60;99.90;;;;;;5046661;28;20461;-69
2024/03/18 08:42:15;;;;;;;15.27;10.90;;;10.70;99.90;;;;;;5045838;28;20484;-71
2024/03/18 08:44:42;;;;;;;17.93;10.23;;;10.80;99.90;;;;;;5047071;28;20515;-69
2024/03/18 08:47:09;;;;;;;17.40;10.50;;;10.60;99.90;;;;;;5046702;28;20483;-69
2024/03/18 08:49:36;;;;;;;18.77;10.80;;;10.40;99.90;;;;;;5046407;28;20836;-69
2024/03/18 08:52:03;;;;;;;16.67;10.47;;;10.20;99.90;;;;;;5045730;28;20472;-69
2024/03/18 08:54:32;;;;;;;16.43;12.17;;;10.20;99.90;;;;;;5047691;28;20479;-70
2024/03/18 08:57:00;;;;;;;16.50;11.37;;;10.30;99.90;;;;;;5047191;28;20459;-70
2024/03/18 08:59:28;;;;;;;19.00;13.07;;;10.40;99.90;;;;;;5046880;28;20458;-71
2024/03/18 09:01:56;;;;;;;19.67;13.48;;;10.50;99.90;;;;;;5044865;28;20474;-72
2024/03/18 09:04:23;;;;;;;19.80;12.50;;;10.60;99.90;;;;;;5046998;28;20210;-72
2024/03/18 09:06:51;;;;;;;18.20;11.53;;;10.60;99.90;;;;;;5046015;28;21046;-71
2024/03/18 09:09:19;;;;;;;17.10;12.50;;;10.70;99.90;;;;;;5046962;28;20518;-71
2024/03/18 09:11:46;;;;;;;16.77;11.20;;;10.80;99.90;;;;;;5045277;28;21034;-71
2024/03/18 09:14:13;;;;;;;17.27;12.20;;;11.00;99.90;;;;;;5046789;28;20451;-70
2024/03/18 09:16:42;;;;;;;17.30;11.87;;;11.20;99.90;;;;;;5046435;28;20510;-69
2024/03/18 09:19:09;;;;;;;17.10;12.37;;;11.40;99.90;;;;;;5046369;28;20770;-71
2024/03/18 09:21:36;;;;;;;19.80;11.70;;;11.30;99.90;;;;;;5043694;28;20476;-71
2024/03/18 09:24:03;;;;;;;16.60;11.40;;;11.30;99.90;;;;;;5044863;28;20452;-71
2024/03/18 09:26:30;;;;;;;15.77;10.57;;;11.50;99.90;;;;;;5046390;28;21208;-70
2024/03/18 09:28:58;;;;;;;15.90;10.57;;;11.60;99.90;;;;;;5046071;28;20456;-70
2024/03/18 09:31:25;;;;;;;17.07;11.27;;;11.70;99.90;;;;;;5045476;28;20480;-70
2024/03/18 09:33:54;;;;;;;16.67;11.60;;;11.60;99.90;;;;;;5044906;28;20487;-70
2024/03/18 09:36:21;;;;;;;15.30;10.60;;;11.70;99.90;;;;;;5046126;28;20471;-69
2024/03/18 09:38:48;;;;;;;17.37;10.93;;;11.80;99.90;;;;;;5045643;28;21036;-70
2024/03/18 09:41:19;;;;;;;17.07;10.20;;;11.90;99.90;;;;;;5045781;28;20480;-71
2024/03/18 09:43:46;;;;;;;15.37;11.40;;;11.90;99.90;;;;;;5045007;28;20452;-70
2024/03/18 09:46:17;;;;;;;15.10;10.80;;;12.00;99.90;;;;;;5045911;28;20490;-71
2024/03/18 09:48:44;;;;;;;14.03;9.70;;;12.20;99.90;;;;;;5046122;28;20452;-71
2024/03/18 09:51:16;;;;;;;15.73;10.03;;;12.30;99.90;;;;;;5045533;28;20484;-68
2024/03/18 09:53:44;;;;;;;13.30;9.00;;;12.50;99.90;;;;;;5044089;28;21234;-69
2024/03/18 09:56:14;;;;;;;12.57;9.10;;;12.60;99.90;;;;;;5045100;28;20452;-70
2024/03/18 09:58:41;;;;;;;14.33;9.50;;;12.60;99.90;;;;;;5046779;28;20475;-71
2024/03/18 10:01:12;;;;;;;15.53;8.90;;;12.70;99.90;;;;;;5046070;28;20483;-71
2024/03/18 10:03:41;;;;;;;13.07;8.53;;;12.80;99.90;;;;;;5045528;28;20489;-71
2024/03/18 10:06:08;;;;;;;14.47;9.20;;;12.80;99.90;;;;;;5037925;28;20463;-70
2024/03/18 10:08:39;;;;;;;13.93;9.33;;;12.70;99.90;;;;;;5046144;28;20529;-71
2024/03/18 10:11:06;;;;;;;11.00;6.90;;;12.90;99.90;;;;;;5046093;28;20483;-71
2024/03/18 10:13:33;;;;;;;13.27;6.90;;;13.00;99.90;;;;;;5045616;28;20463;-70
2024/03/18 10:16:01;;;;;;;13.47;7.40;;;13.00;99.90;;;;;;5046605;28;20455;-71
2024/03/18 10:18:28;;;;;;;15.77;9.03;;;13.00;99.90;;;;;;5046298;28;22147;-71
2024/03/18 10:20:59;;;;;;;12.30;8.20;;;13.00;99.90;;;;;;5046391;28;20455;-70
2024/03/18 10:23:27;;;;;;;13.13;8.37;;;13.00;99.90;;;;;;5045575;28;20889;-70
2024/03/18 10:26:01;;;;;;;12.57;8.20;;;13.00;99.90;;;;;;5045544;28;20976;-70
2024/03/18 10:28:28;;;;;;;11.27;7.13;;;13.20;99.90;;;;;;5040402;28;20481;-70
2024/03/18 10:30:57;;;;;;;13.37;7.63;;;13.10;99.90;;;;;;5046208;28;20456;-70
2024/03/18 10:33:27;;;;;;;12.20;8.90;;;13.20;99.90;;;;;;5045302;28;20451;-71
2024/03/18 10:35:58;;;;;;;12.27;7.83;;;13.30;99.90;;;;;;5044336;28;20481;-67
2024/03/18 10:38:25;;;;;;;11.30;7.50;;;13.40;99.90;;;;;;5045319;28;20534;-71
2024/03/18 10:40:55;;;;;;;12.40;7.13;;;13.60;99.90;;;;;;5044622;28;20461;-71
2024/03/18 10:43:33;;;;;;;12.53;7.43;;;13.70;99.90;;;;;;5044031;28;20512;-70
2024/03/18 10:46:00;;;;;;;13.70;7.20;;;13.60;99.90;;;;;;5045070;28;20452;-71
2024/03/18 10:48:27;;;;;;;11.53;6.80;;;13.50;99.90;;;;;;5044809;28;20514;-70
2024/03/18 10:50:55;;;;;;;13.60;7.60;;;13.40;99.90;;;;;;5041078;28;20541;-70
2024/03/18 10:53:25;;;;;;;12.00;8.00;;;13.30;99.90;;;;;;5043883;28;20460;-71
2024/03/18 10:55:53;;;;;;;14.30;7.93;;;13.20;99.90;;;;;;5045113;28;20829;-72
2024/03/18 10:58:24;;;;;;;13.97;8.97;;;12.90;99.90;;;;;;5044964;28;20833;-69
2024/03/18 11:00:51;;;;;;;13.07;8.03;;;12.70;99.90;;;;;;5044645;28;20448;-68
2024/03/18 11:03:21;;;;;;;15.47;9.00;;;12.80;99.90;;;;;;5042706;28;20455;-68
2024/03/18 11:05:49;;;;;;;13.40;8.23;;;12.70;99.90;;;;;;5037893;28;20503;-69
2024/03/18 11:08:18;;;;;;;15.93;8.20;;;12.70;99.90;;;;;;5037471;28;21005;-69
2024/03/18 11:10:46;;;;;;;13.33;8.57;;;12.60;99.90;;;;;;5045831;28;20537;-69
2024/03/18 11:13:15;;;;;;;14.30;9.30;;;12.50;99.90;;;;;;5043944;28;20466;-68
2024/03/18 11:15:55;;;;;;;11.00;7.97;;;12.40;99.90;;;;;;5045073;28;20486;-70
2024/03/18 11:18:28;;;;;;;13.90;7.73;;;12.40;99.90;;;;;;5037720;28;20462;-72
2024/03/18 11:21:02;;;;;;;15.53;7.87;;;12.30;99.90;;;;;;5048201;28;20455;-72
2024/03/18 11:23:30;;;;;;;15.87;8.40;;;12.20;99.90;;;;;;5047949;28;20514;-69
2024/03/18 11:26:05;;;;;;;14.07;8.97;;;12.00;99.90;;;;;;5048430;28;20866;-70
2024/03/18 11:28:35;;;;;;;16.03;10.40;;;11.90;99.90;;;;;;5048568;28;20490;-70
2024/03/18 11:31:05;;;;;;;11.33;7.03;;;12.00;99.90;;;;;;5048130;28;21024;-71
2024/03/18 11:33:36;;;;;;;12.63;8.03;;;12.00;99.90;;;;;;5047215;28;20462;-71
2024/03/18 11:36:04;;;;;;;16.23;7.67;;;12.00;99.90;;;;;;5048287;28;20466;-69
2024/03/18 11:38:32;;;;;;;15.23;8.33;;;12.00;99.90;;;;;;5048535;28;20975;-68
2024/03/18 11:40:59;;;;;;;15.13;9.17;;;12.00;99.90;;;;;;5048222;28;20474;-69
2024/03/18 11:43:26;;;;;;;16.33;8.90;;;12.00;99.90;;;;;;5046754;28;20463;-70
2024/03/18 11:45:53;;;;;;;14.43;9.23;;;12.00;99.90;;;;;;5047935;28;20459;-69
2024/03/18 11:48:22;;;;;;;15.73;9.17;;;11.90;99.90;;;;;;5034512;28;20476;-70
2024/03/18 11:50:49;;;;;;;13.90;9.07;;;11.80;99.90;;;;;;5030389;28;20452;-70
2024/03/18 11:53:18;;;;;;;14.57;9.10;;;11.80;99.90;;;;;;5041309;28;21245;-68
2024/03/18 11:55:46;;;;;;;14.43;8.60;;;11.90;99.90;;;;;;5048369;28;20448;-69
2024/03/18 11:58:14;;;;;;;12.80;8.50;;;11.90;99.90;;;;;;5047839;28;20486;-69
2024/03/18 12:00:42;;;;;;;17.30;8.10;;;11.90;99.90;;;;;;5048436;28;20451;-70
2024/03/18 12:03:11;;;;;;;12.73;7.53;;;11.80;99.90;;;;;;5046912;28;21008;-70
2024/03/18 12:05:43;;;;;;;17.30;9.00;;;11.70;99.90;;;;;;5048227;28;20512;-69
2024/03/18 12:08:20;;;;;;;15.03;10.10;;;11.70;99.90;;;;;;5046061;28;20475;-69
2024/03/18 12:10:52;;;;;;;14.80;8.90;;;11.60;99.90;;;;;;5048267;28;20447;-69
2024/03/18 12:13:20;;;;;;;14.33;8.50;;;11.40;99.90;;;;;;5043332;28;20458;-70
2024/03/18 12:15:47;;;;;;;12.90;8.07;;;11.40;99.90;;;;;;5044027;28;20475;-69
2024/03/18 12:18:14;;;;;;;15.40;8.57;;;11.30;99.90;;;;;;5048116;28;20823;-70
2024/03/18 12:20:42;;;;;;;15.07;8.40;;;11.40;99.90;;;;;;5048192;28;20485;-70
2024/03/18 12:23:16;;;;;;;14.30;7.57;;;11.40;99.90;;;;;;5045999;28;20458;-69
2024/03/18 12:28:43;;;;;;;13.50;6.80;;;11.50;99.90;;;;;;5048425;28;20490;-70
2024/03/18 12:31:12;;;;;;;13.27;7.10;;;11.40;99.90;;;;;;5047311;28;20471;-71
2024/03/18 12:33:41;;;;;;;14.83;7.97;;;11.30;99.90;;;;;;5047559;28;20523;-69
2024/03/18 12:36:16;;;;;;;13.20;7.83;;;11.30;99.90;;;;;;5048633;28;20468;-70
2024/03/18 12:38:44;;;;;;;15.70;7.93;;;11.40;99.90;;;;;;5047748;28;20568;-71
2024/03/18 12:41:16;;;;;;;13.30;7.70;;;11.50;99.90;;;;;;5045055;28;20473;-70
2024/03/18 12:43:43;;;;;;;15.73;8.20;;;11.60;99.90;;;;;;5045277;28;20463;-70
2024/03/18 12:46:11;;;;;;;14.23;7.53;;;11.60;99.90;;;;;;5046083;28;20459;-72
2024/03/18 12:48:38;;;;;;;14.40;9.00;;;11.50;99.90;;;;;;5045932;28;20483;-71